Time;durP1;ratioP1;P1;durP2;ratioP2;P2;SDS_P1;SDS_P2;PMS_P1;PMS_P2;Temp;Humidity;BMP_temperature;BMP_pressure;BME280_temperature;BME280_humidity;BME280_pressure;Samples;Min_cycle;Max_cycle;Signal;HPM_P1;HPM_P2
2022/12/05 00:02:06;;;;;;;;;;;;;;;22.28;37.18;101671.84;7247206;19;153835;-54
2022/12/05 00:04:33;;;;;;;;;;;;;;;22.28;37.35;101662.53;7251557;19;152844;-54
2022/12/05 00:07:03;;;;;;;;;;;;;;;22.26;36.88;101660.03;7250011;19;156576;-54
2022/12/05 00:09:30;;;;;;;;;;;;;;;22.24;37.20;101665.13;7258295;19;153286;-54
2022/12/05 00:11:59;;;;;;;;;;;;;;;22.23;37.35;101660.63;7246493;19;153878;-54
2022/12/05 00:14:26;;;;;;;;;;;;;;;22.21;37.12;101662.94;7250033;19;153817;-54
2022/12/05 00:16:53;;;;;;;;;;;;;;;22.20;37.27;101669.69;7245343;19;154199;-54
2022/12/05 00:19:21;;;;;;;;;;;;;;;22.17;37.34;101659.88;7248410;19;154085;-54
2022/12/05 00:21:48;;;;;;;;;;;;;;;22.10;37.96;101662.22;7244584;19;154273;-57
2022/12/05 00:24:15;;;;;;;;;;;;;;;22.05;37.85;101662.28;7251522;19;154283;-54
2022/12/05 00:26:43;;;;;;;;;;;;;;;21.98;38.22;101667.47;7246535;19;153234;-54
2022/12/05 00:29:11;;;;;;;;;;;;;;;21.98;38.69;101670.28;7245576;19;153777;-53
2022/12/05 00:31:38;;;;;;;;;;;;;;;21.95;38.56;101670.84;7251839;19;154295;-55
2022/12/05 00:34:05;;;;;;;;;;;;;;;21.91;39.14;101664.13;7249060;19;152808;-54
2022/12/05 00:36:34;;;;;;;;;;;;;;;21.86;38.84;101661.38;7249118;19;154477;-53
2022/12/05 00:39:02;;;;;;;;;;;;;;;21.83;39.10;101661.97;7250087;19;155287;-54
2022/12/05 00:41:29;;;;;;;;;;;;;;;21.80;39.72;101662.59;7248307;19;154125;-53
2022/12/05 00:43:57;;;;;;;;;;;;;;;21.77;39.50;101665.97;7248930;19;154342;-55
2022/12/05 00:46:26;;;;;;;;;;;;;;;21.74;39.48;101659.00;7251896;19;154725;-53
2022/12/05 00:48:54;;;;;;;;;;;;;;;21.72;39.92;101660.41;7248666;19;154278;-54
2022/12/05 00:51:22;;;;;;;;;;;;;;;21.73;39.77;101662.94;7247385;19;154918;-53
2022/12/05 00:53:49;;;;;;;;;;;;;;;21.73;40.19;101662.94;7252755;19;153600;-54
2022/12/05 00:56:19;;;;;;;;;;;;;;;21.73;40.25;101657.31;7248296;19;152917;-53
2022/12/05 00:58:47;;;;;;;;;;;;;;;21.71;40.41;101656.75;7244389;19;157015;-53
2022/12/05 01:01:16;;;;;;;;;;;;;;;21.72;40.21;101657.59;7251045;19;154247;-53
2022/12/05 01:03:45;;;;;;;;;;;;;;;21.71;40.35;101656.75;7252476;19;153555;-53
2022/12/05 01:06:12;;;;;;;;;;;;;;;21.71;40.59;101653.94;7250589;19;154558;-53
2022/12/05 01:08:39;;;;;;;;;;;;;;;21.70;40.59;101665.50;7247025;19;154457;-54
2022/12/05 01:11:08;;;;;;;;;;;;;;;21.69;40.41;101650.63;7249638;19;153676;-54
2022/12/05 01:13:34;;;;;;;;;;;;;;;21.69;40.37;101655.41;7249104;19;153896;-54
2022/12/05 01:16:01;;;;;;;;;;;;;;;21.67;40.66;101664.13;7247311;19;154869;-55
2022/12/05 01:18:29;;;;;;;;;;;;;;;21.65;40.55;101657.97;7244518;19;154709;-55
2022/12/05 01:20:56;;;;;;;;;;;;;;;21.62;40.70;101666.19;7246923;19;153640;-55
2022/12/05 01:23:23;;;;;;;;;;;;;;;21.60;40.62;101660.84;7244265;19;153787;-54
2022/12/05 01:25:51;;;;;;;;;;;;;;;21.57;40.80;101660.59;7242969;19;156390;-54
2022/12/05 01:28:18;;;;;;;;;;;;;;;21.56;40.72;101668.19;7243760;19;152510;-54
2022/12/05 01:30:46;;;;;;;;;;;;;;;21.53;40.70;101665.97;7243220;19;153575;-55
2022/12/05 01:33:13;;;;;;;;;;;;;;;21.49;40.81;101667.69;7247005;19;153412;-54
2022/12/05 01:35:41;;;;;;;;;;;;;;;21.48;40.94;101671.66;7255632;19;153056;-54
2022/12/05 01:38:09;;;;;;;;;;;;;;;21.45;40.82;101663.81;7244551;19;156461;-54
2022/12/05 01:40:36;;;;;;;;;;;;;;;21.43;40.90;101676.50;7245463;19;154622;-54
2022/12/05 01:43:03;;;;;;;;;;;;;;;21.41;41.13;101671.16;7247005;19;154742;-54
2022/12/05 01:45:31;;;;;;;;;;;;;;;21.41;40.91;101673.97;7245093;19;154345;-54
2022/12/05 01:48:01;;;;;;;;;;;;;;;21.37;41.29;101674.88;7243947;19;156648;-54
2022/12/05 01:50:28;;;;;;;;;;;;;;;21.33;41.30;101677.44;7245759;19;153781;-54
2022/12/05 01:52:55;;;;;;;;;;;;;;;21.33;41.21;101685.88;7245407;19;155995;-54
2022/12/05 01:55:23;;;;;;;;;;;;;;;21.33;41.25;101683.06;7246364;19;153484;-55
2022/12/05 01:57:49;;;;;;;;;;;;;;;21.27;41.25;101685.06;7250293;19;155323;-54
2022/12/05 02:00:18;;;;;;;;;;;;;;;21.30;41.55;101695.72;7246495;19;153460;-54
2022/12/05 02:02:47;;;;;;;;;;;;;;;21.24;41.55;101688.50;7242290;19;152420;-54
2022/12/05 02:05:16;;;;;;;;;;;;;;;21.23;41.57;101685.97;7240491;19;153013;-53
2022/12/05 02:07:45;;;;;;;;;;;;;;;21.20;41.23;101695.00;7244507;19;154563;-54
2022/12/05 02:10:12;;;;;;;;;;;;;;;21.23;41.52;101688.78;7245863;19;152808;-53
2022/12/05 02:12:39;;;;;;;;;;;;;;;21.19;41.52;101693.31;7239973;19;153743;-54
2022/12/05 02:15:07;;;;;;;;;;;;;;;21.19;41.55;101696.13;7243895;19;153260;-54
2022/12/05 02:17:44;;;;;;;;;;;;;;;21.15;41.88;101695.03;7246220;19;154459;-54
2022/12/05 02:20:18;;;;;;;;;;;;;;;21.12;41.54;101687.97;7250586;19;154306;-54
2022/12/05 02:22:55;;;;;;;;;;;;;;;21.10;41.55;101693.06;7245600;19;153608;-54
2022/12/05 02:25:32;;;;;;;;;;;;;;;21.12;41.76;101690.78;7244143;19;154099;-54
2022/12/05 02:27:59;;;;;;;;;;;;;;;21.09;42.05;101696.16;7246121;19;154271;-54
2022/12/05 02:30:31;;;;;;;;;;;;;;;21.08;41.94;101694.47;7245099;19;153400;-54
2022/12/05 02:33:08;;;;;;;;;;;;;;;21.04;41.63;101699.84;7245237;19;154798;-54
2022/12/05 02:35:45;;;;;;;;;;;;;;;21.00;41.92;101690.34;7253672;19;154556;-54
2022/12/05 02:38:20;;;;;;;;;;;;;;;20.99;41.81;101693.44;7244062;19;152716;-54
2022/12/05 02:40:57;;;;;;;;;;;;;;;20.96;41.74;101688.41;7241826;19;154064;-54
2022/12/05 02:43:29;;;;;;;;;;;;;;;20.98;42.02;101695.44;7254631;19;154914;-54
2022/12/05 02:45:58;;;;;;;;;;;;;;;20.94;41.75;101693.50;7241135;19;154215;-54
2022/12/05 02:48:27;;;;;;;;;;;;;;;20.89;41.81;101700.00;7241450;19;152809;-54
2022/12/05 02:50:56;;;;;;;;;;;;;;;20.87;42.08;101696.63;7241979;19;153927;-54
2022/12/05 02:53:25;;;;;;;;;;;;;;;20.91;41.92;101710.94;7244590;19;154186;-54
2022/12/05 02:55:52;;;;;;;;;;;;;;;20.86;41.95;101701.41;7242986;19;153787;-54
2022/12/05 02:58:25;;;;;;;;;;;;;;;20.82;42.19;101700.31;7244336;19;154873;-53
2022/12/05 03:00:54;;;;;;;;;;;;;;;20.79;42.22;101706.53;7239458;19;156083;-53
2022/12/05 03:03:21;;;;;;;;;;;;;;;20.79;42.46;101702.88;7241996;19;155371;-54
2022/12/05 03:05:53;;;;;;;;;;;;;;;20.75;42.45;101697.00;7251781;19;152749;-54
2022/12/05 03:08:22;;;;;;;;;;;;;;;20.76;42.38;101695.03;7242193;19;152226;-54
2022/12/05 03:10:50;;;;;;;;;;;;;;;20.74;42.42;101703.75;7240658;19;153083;-54
2022/12/05 03:13:20;;;;;;;;;;;;;;;20.74;42.70;101703.75;7242123;19;156310;-54
2022/12/05 03:15:50;;;;;;;;;;;;;;;20.71;42.50;101695.94;7244205;19;153387;-54
2022/12/05 03:18:17;;;;;;;;;;;;;;;20.70;42.87;101694.25;7251553;19;153255;-54
2022/12/05 03:20:47;;;;;;;;;;;;;;;20.66;42.72;101700.72;7249277;19;154028;-54
2022/12/05 03:23:19;;;;;;;;;;;;;;;20.64;42.87;101703.81;7252017;19;154544;-54
2022/12/05 03:25:55;;;;;;;;;;;;;;;20.64;42.87;101702.97;7255569;19;153985;-54
2022/12/05 03:28:24;;;;;;;;;;;;;;;20.63;42.66;101701.28;7249206;19;154879;-54
2022/12/05 03:30:54;;;;;;;;;;;;;;;20.62;42.80;101705.25;7246520;19;153973;-54
2022/12/05 03:33:24;;;;;;;;;;;;;;;20.60;42.80;101705.53;7244898;19;154816;-54
2022/12/05 03:35:58;;;;;;;;;;;;;;;20.57;43.10;101710.91;7248841;19;153718;-54
2022/12/05 03:38:26;;;;;;;;;;;;;;;20.56;42.90;101710.06;7247747;19;153572;-54
2022/12/05 03:40:59;;;;;;;;;;;;;;;20.54;42.86;101717.91;7248742;19;152692;-54
2022/12/05 03:43:34;;;;;;;;;;;;;;;20.53;42.67;101713.44;7247885;19;153264;-54
2022/12/05 03:46:03;;;;;;;;;;;;;;;20.50;43.08;101713.16;7251077;19;153972;-54
2022/12/05 03:48:36;;;;;;;;;;;;;;;20.49;42.63;101708.72;7255641;19;156633;-53
2022/12/05 03:51:05;;;;;;;;;;;;;;;20.47;43.09;101711.78;7249284;19;154207;-54
2022/12/05 03:53:36;;;;;;;;;;;;;;;20.45;42.92;101716.00;7245877;19;153320;-54
2022/12/05 03:56:08;;;;;;;;;;;;;;;20.45;43.14;101716.00;7247052;19;154971;-54
2022/12/05 03:58:38;;;;;;;;;;;;;;;20.43;43.36;101719.13;7248193;19;154147;-54
2022/12/05 04:01:07;;;;;;;;;;;;;;;20.41;43.10;101718.56;7241324;19;152653;-54
2022/12/05 04:03:45;;;;;;;;;;;;;;;20.40;43.33;101728.94;7246685;19;152478;-54
2022/12/05 04:06:17;;;;;;;;;;;;;;;20.38;43.03;101725.59;7250319;19;154651;-54
2022/12/05 04:08:49;;;;;;;;;;;;;;;20.34;42.96;101724.50;7244109;19;153825;-54
2022/12/05 04:11:18;;;;;;;;;;;;;;;20.33;43.48;101722.81;7256865;19;152700;-53
2022/12/05 04:13:48;;;;;;;;;;;;;;;20.31;43.01;101733.47;7246349;19;155583;-54
2022/12/05 04:18:58;;;;;;;;;;;;;;;20.28;43.53;101727.56;7248561;19;154057;-55
2022/12/05 04:21:37;;;;;;;;;;;;;;;20.26;43.44;101736.25;7247890;19;154408;-54
2022/12/05 04:26:54;;;;;;;;;;;;;;;20.23;43.13;101733.19;7247419;19;153149;-53
2022/12/05 04:29:25;;;;;;;;;;;;;;;20.20;43.52;101734.63;7247508;19;153252;-54
2022/12/05 04:31:55;;;;;;;;;;;;;;;20.20;43.45;101736.59;7246020;19;152853;-53
2022/12/05 04:34:23;;;;;;;;;;;;;;;20.18;43.61;101741.63;7254497;19;154205;-54
2022/12/05 04:36:52;;;;;;;;;;;;;;;20.16;43.36;101732.69;7247776;19;153512;-53
2022/12/05 04:39:23;;;;;;;;;;;;;;;20.14;43.40;101740.53;7249717;19;155598;-54
2022/12/05 04:41:52;;;;;;;;;;;;;;;20.12;43.36;101749.25;7244000;19;153613;-54
2022/12/05 04:44:22;;;;;;;;;;;;;;;20.11;43.46;101736.34;7246152;19;153399;-54
2022/12/05 04:46:49;;;;;;;;;;;;;;;20.08;43.43;101741.69;7249251;19;154918;-54
2022/12/05 04:49:19;;;;;;;;;;;;;;;20.10;43.74;101745.03;7246683;19;156150;-54
2022/12/05 04:51:48;;;;;;;;;;;;;;;20.07;43.66;101735.25;7247922;19;153608;-54
2022/12/05 04:54:19;;;;;;;;;;;;;;;20.06;43.61;101739.16;7246312;19;154635;-54
2022/12/05 04:56:48;;;;;;;;;;;;;;;20.03;43.94;101738.91;7256874;19;153799;-54
2022/12/05 04:59:14;;;;;;;;;;;;;;;20.05;43.96;101745.06;7246827;19;154374;-53
2022/12/05 05:01:48;;;;;;;;;;;;;;;19.97;44.24;101741.72;7245875;19;153833;-53
2022/12/05 05:04:20;;;;;;;;;;;;;;;19.98;44.31;101743.41;7246966;19;153609;-53
2022/12/05 05:06:47;;;;;;;;;;;;;;;19.98;44.19;101751.00;7245244;19;152278;-54
2022/12/05 05:09:14;;;;;;;;;;;;;;;19.96;44.06;101759.69;7246477;19;154058;-54
2022/12/05 05:11:40;;;;;;;;;;;;;;;19.95;44.06;101759.94;7247300;19;153951;-54
2022/12/05 05:14:07;;;;;;;;;;;;;;;19.93;44.24;101754.66;7244709;19;153511;-54
2022/12/05 05:16:36;;;;;;;;;;;;;;;19.89;44.02;101759.16;7243311;19;154068;-54
2022/12/05 05:19:04;;;;;;;;;;;;;;;19.89;44.09;101761.94;7255039;19;153821;-54
2022/12/05 05:21:32;;;;;;;;;;;;;;;19.89;44.22;101763.91;7243970;19;153747;-54
2022/12/05 05:23:59;;;;;;;;;;;;;;;19.88;44.20;101760.25;7247680;19;154161;-53
2022/12/05 05:26:27;;;;;;;;;;;;;;;19.95;44.75;101765.56;7242422;19;152780;-54
2022/12/05 05:28:54;;;;;;;;;;;;;;;20.01;44.54;101767.22;7246621;19;153787;-53
2022/12/05 05:31:20;;;;;;;;;;;;;;;20.09;44.78;101765.81;7245318;19;152745;-54
2022/12/05 05:33:48;;;;;;;;;;;;;;;20.14;44.93;101777.00;7253953;19;154404;-53
2022/12/05 05:36:15;;;;;;;;;;;;;;;20.17;45.24;101762.44;7248390;19;154166;-54
2022/12/05 05:38:43;;;;;;;;;;;;;;;20.19;45.31;101769.41;7256082;19;153714;-54
2022/12/05 05:41:11;;;;;;;;;;;;;;;20.22;45.46;101768.84;7245421;19;154244;-53
2022/12/05 05:43:39;;;;;;;;;;;;;;;20.27;45.08;101776.41;7244570;19;153281;-55
2022/12/05 05:46:05;;;;;;;;;;;;;;;20.31;45.24;101778.38;7241726;19;152835;-54
2022/12/05 05:48:32;;;;;;;;;;;;;;;20.35;45.59;101778.66;7242793;19;155741;-54
2022/12/05 05:50:59;;;;;;;;;;;;;;;20.37;45.15;101779.19;7246652;19;153672;-55
2022/12/05 05:53:26;;;;;;;;;;;;;;;20.42;45.13;101788.44;7246513;19;152849;-54
2022/12/05 05:55:53;;;;;;;;;;;;;;;20.46;45.28;101777.47;7244248;19;154314;-54
2022/12/05 05:58:20;;;;;;;;;;;;;;;20.50;45.63;101787.00;7245908;19;152689;-54
2022/12/05 06:00:47;;;;;;;;;;;;;;;20.54;45.56;101787.25;7252308;19;154321;-52
2022/12/05 06:03:14;;;;;;;;;;;;;;;20.57;45.25;101786.69;7246828;19;153142;-53
2022/12/05 06:05:41;;;;;;;;;;;;;;;20.62;45.89;101792.28;7244152;19;153637;-54
2022/12/05 06:08:08;;;;;;;;;;;;;;;20.65;45.45;101780.47;7245801;19;153606;-54
2022/12/05 06:10:37;;;;;;;;;;;;;;;20.69;45.89;101788.03;7251238;19;153888;-54
2022/12/05 06:13:04;;;;;;;;;;;;;;;20.74;45.70;101793.63;7244137;19;153483;-54
2022/12/05 06:15:30;;;;;;;;;;;;;;;20.78;45.37;101788.25;7244241;19;155970;-54
2022/12/05 06:17:57;;;;;;;;;;;;;;;20.82;45.34;101786.56;7245508;19;153559;-54
2022/12/05 06:20:24;;;;;;;;;;;;;;;20.85;45.51;101786.81;7245218;19;153689;-54
2022/12/05 06:22:51;;;;;;;;;;;;;;;20.91;46.24;101789.59;7252501;19;154609;-54
2022/12/05 06:25:17;;;;;;;;;;;;;;;20.94;46.47;101792.63;7245315;19;153844;-55
2022/12/05 06:27:44;;;;;;;;;;;;;;;20.99;45.53;101786.16;7240937;19;154489;-54
2022/12/05 06:30:11;;;;;;;;;;;;;;;21.02;46.14;101786.44;7244695;19;153550;-53
2022/12/05 06:32:38;;;;;;;;;;;;;;;21.07;46.31;101797.63;7245763;19;153256;-53
2022/12/05 06:35:13;;;;;;;;;;;;;;;21.12;45.89;101796.75;7244483;19;155310;-53
2022/12/05 06:37:41;;;;;;;;;;;;;;;21.16;45.88;101792.28;7245738;19;152443;-53
2022/12/05 06:40:09;;;;;;;;;;;;;;;21.18;45.60;101779.59;7246356;19;154172;-54
2022/12/05 06:42:36;;;;;;;;;;;;;;;21.23;45.56;101793.59;7241017;19;153425;-53
2022/12/05 06:45:03;;;;;;;;;;;;;;;21.27;45.35;101797.50;7253590;19;153668;-54
2022/12/05 06:47:30;;;;;;;;;;;;;;;21.31;45.27;101800.56;7243438;19;154003;-53
2022/12/05 06:49:57;;;;;;;;;;;;;;;21.36;45.22;101803.34;7241900;19;153641;-54
2022/12/05 06:52:24;;;;;;;;;;;;;;;21.40;45.03;101801.63;7244528;19;154171;-53
2022/12/05 06:54:51;;;;;;;;;;;;;;;21.44;44.83;101801.91;7245575;19;154376;-54
2022/12/05 06:57:17;;;;;;;;;;;;;;;21.48;44.85;101805.78;7241473;19;154361;-53
2022/12/05 06:59:44;;;;;;;;;;;;;;;21.51;44.78;101803.22;7244591;19;153338;-52
2022/12/05 07:02:12;;;;;;;;;;;;;;;21.55;45.04;101811.91;7240043;19;153125;-53
2022/12/05 07:04:39;;;;;;;;;;;;;;;21.58;44.65;101817.78;7244716;19;153760;-53
2022/12/05 07:07:05;;;;;;;;;;;;;;;21.63;44.70;101812.09;7245392;19;153163;-53
2022/12/05 07:12:08;;;;;;;;;;;;;;;21.72;44.79;101820.75;7243598;19;154650;-53
2022/12/05 07:14:35;;;;;;;;;;;;;;;21.74;44.41;101822.16;7243540;19;154361;-53
2022/12/05 07:17:13;;;;;;;;;;;;;;;21.81;44.94;101818.13;7242498;19;153650;-54
2022/12/05 07:19:40;;;;;;;;;;;;;;;21.85;44.31;101824.88;7245085;19;153849;-54
2022/12/05 07:22:07;;;;;;;;;;;;;;;21.89;43.58;101828.75;7240427;19;155542;-54
2022/12/05 07:24:41;;;;;;;;;;;;;;;21.94;43.25;101831.56;7243319;19;154965;-54
2022/12/05 07:27:08;;;;;;;;;;;;;;;21.98;42.92;101838.28;7238644;19;153424;-54
2022/12/05 07:29:34;;;;;;;;;;;;;;;22.00;42.76;101839.63;7248528;19;153931;-54
2022/12/05 07:32:01;;;;;;;;;;;;;;;22.03;42.68;101839.03;7241127;19;155268;-54
2022/12/05 07:34:28;;;;;;;;;;;;;;;22.05;42.89;101838.75;7243195;19;156085;-54
2022/12/05 07:36:55;;;;;;;;;;;;;;;22.08;42.41;101839.00;7247698;19;153588;-54
2022/12/05 07:39:22;;;;;;;;;;;;;;;22.11;42.37;101846.00;7242022;19;154680;-53
2022/12/05 07:41:48;;;;;;;;;;;;;;;22.14;42.31;101848.22;7241928;19;153368;-53
2022/12/05 07:44:16;;;;;;;;;;;;;;;22.15;42.03;101855.53;7243906;19;154332;-53
2022/12/05 07:46:42;;;;;;;;;;;;;;;22.15;42.26;101847.09;7239385;19;153220;-55
2022/12/05 07:49:09;;;;;;;;;;;;;;;22.18;42.38;101847.34;7246258;19;153573;-54
2022/12/05 07:51:36;;;;;;;;;;;;;;;22.23;41.48;101862.50;7230472;19;152967;-53
2022/12/05 07:54:03;;;;;;;;;;;;;;;22.26;41.33;101857.09;7243119;19;153188;-54
2022/12/05 07:56:31;;;;;;;;;;;;;;;22.14;38.49;101865.09;7240869;19;153593;-54
2022/12/05 07:58:58;;;;;;;;;;;;;;;22.16;39.10;101871.31;7242557;19;154264;-54
2022/12/05 08:01:26;;;;;;;;;;;;;;;22.19;39.35;101879.13;7244308;19;154252;-54
2022/12/05 08:03:54;;;;;;;;;;;;;;;22.22;39.00;101877.69;7249984;19;154096;-55
2022/12/05 08:06:23;;;;;;;;;;;;;;;22.21;38.13;101888.13;7248563;19;153573;-55
2022/12/05 08:08:50;;;;;;;;;;;;;;;22.22;37.83;101888.94;7244705;19;153466;-53
2022/12/05 08:11:18;;;;;;;;;;;;;;;22.21;37.53;101873.22;7257536;19;154110;-54
2022/12/05 08:13:45;;;;;;;;;;;;;;;22.19;36.96;101884.78;7241885;19;156258;-55
2022/12/05 08:16:14;;;;;;;;;;;;;;;22.15;37.15;101895.78;7251613;19;153702;-53
2022/12/05 08:18:41;;;;;;;;;;;;;;;22.12;36.70;101892.72;7246998;19;153507;-53
2022/12/05 08:21:10;;;;;;;;;;;;;;;22.06;36.73;101891.09;7247776;19;153798;-54
2022/12/05 08:23:38;;;;;;;;;;;;;;;22.04;37.30;101897.00;7249878;19;153369;-54
2022/12/05 08:26:06;;;;;;;;;;;;;;;22.03;37.24;101895.31;7250067;19;152822;-54
2022/12/05 08:28:33;;;;;;;;;;;;;;;22.00;37.76;101893.09;7248192;19;154348;-55
2022/12/05 08:31:03;;;;;;;;;;;;;;;22.01;38.21;101888.31;7248048;19;153782;-56
2022/12/05 08:33:30;;;;;;;;;;;;;;;21.99;38.45;101896.22;7257281;19;154976;-55
2022/12/05 08:35:58;;;;;;;;;;;;;;;22.02;39.03;101892.81;7248472;19;153863;-54
2022/12/05 08:38:25;;;;;;;;;;;;;;;22.08;39.42;101888.81;7248603;19;153373;-54
2022/12/05 08:40:52;;;;;;;;;;;;;;;22.08;38.70;101892.47;7247139;19;154271;-55
2022/12/05 08:43:19;;;;;;;;;;;;;;;22.11;38.54;101900.34;7251072;19;154450;-54
2022/12/05 08:45:48;;;;;;;;;;;;;;;22.12;38.71;101898.38;7251794;19;154398;-55
2022/12/05 08:48:15;;;;;;;;;;;;;;;22.14;38.81;101896.06;7247919;19;153796;-55
2022/12/05 08:50:42;;;;;;;;;;;;;;;22.14;38.45;101890.44;7252564;19;153449;-55
2022/12/05 08:53:09;;;;;;;;;;;;;;;22.15;38.63;101895.78;7249919;19;153058;-55
2022/12/05 08:55:36;;;;;;;;;;;;;;;22.15;38.81;101890.16;7254458;19;155222;-55
2022/12/05 08:58:03;;;;;;;;;;;;;;;22.15;38.64;101887.34;7248939;19;153105;-55
2022/12/05 09:00:30;;;;;;;;;;;;;;;22.16;38.67;101894.66;7246306;19;152744;-55
2022/12/05 09:02:57;;;;;;;;;;;;;;;22.19;38.36;101901.66;7249439;19;154172;-55
2022/12/05 09:05:24;;;;;;;;;;;;;;;22.18;38.33;101895.19;7248442;19;153564;-54
2022/12/05 09:07:54;;;;;;;;;;;;;;;22.19;38.34;101896.03;7249311;19;154093;-54
2022/12/05 09:10:21;;;;;;;;;;;;;;;22.18;38.18;101894.34;7250885;19;153612;-54
2022/12/05 09:12:50;;;;;;;;;;;;;;;22.18;37.90;101900.81;7245064;19;153866;-54
2022/12/05 09:15:16;;;;;;;;;;;;;;;22.16;38.19;101900.28;7247068;19;156991;-53
2022/12/05 09:17:43;;;;;;;;;;;;;;;22.15;38.30;101898.59;7254736;19;153177;-53
2022/12/05 09:20:12;;;;;;;;;;;;;;;22.14;37.91;101899.72;7247349;19;155059;-53
2022/12/05 09:22:39;;;;;;;;;;;;;;;22.11;38.08;101908.78;7250740;19;154283;-53
2022/12/05 09:25:07;;;;;;;;;;;;;;;22.11;37.89;101916.38;7248402;19;153881;-53
2022/12/05 09:27:33;;;;;;;;;;;;;;;22.09;37.84;101918.63;7244669;19;153959;-53
2022/12/05 09:30:00;;;;;;;;;;;;;;;22.09;38.29;101922.28;7250207;19;153864;-53
2022/12/05 09:32:27;;;;;;;;;;;;;;;22.06;37.91;101925.72;7245208;19;154671;-53
2022/12/05 09:34:54;;;;;;;;;;;;;;;22.04;38.34;101918.69;7246902;19;153481;-53
2022/12/05 09:37:22;;;;;;;;;;;;;;;22.02;38.23;101921.81;7260182;19;154337;-53
2022/12/05 09:40:05;;;;;;;;;;;;;;;22.02;37.99;101926.59;7248713;19;154531;-53
2022/12/05 09:42:37;;;;;;;;;;;;;;;22.01;37.92;101936.16;7248258;19;153759;-54
2022/12/05 09:45:13;;;;;;;;;;;;;;;21.99;37.94;101939.25;7247534;19;153471;-54
2022/12/05 09:47:50;;;;;;;;;;;;;;;21.97;38.10;101930.28;7245264;19;154404;-54
2022/12/05 09:50:20;;;;;;;;;;;;;;;21.92;38.10;101941.56;7250059;19;153409;-54
2022/12/05 09:52:57;;;;;;;;;;;;;;;21.89;37.97;101944.13;7249190;19;153573;-54
2022/12/05 09:55:24;;;;;;;;;;;;;;;21.87;37.83;101946.38;7248377;19;153942;-54
2022/12/05 09:57:59;;;;;;;;;;;;;;;21.86;37.84;101950.31;7246417;19;153785;-54
2022/12/05 10:00:27;;;;;;;;;;;;;;;21.81;38.24;101944.72;7254306;19;153689;-54
2022/12/05 10:03:04;;;;;;;;;;;;;;;21.80;37.81;101941.09;7249380;19;152300;-54
2022/12/05 10:05:41;;;;;;;;;;;;;;;21.81;37.80;101955.97;7249317;19;153957;-54
2022/12/05 10:08:17;;;;;;;;;;;;;;;21.74;38.19;101957.16;7245111;19;154345;-54
2022/12/05 10:10:53;;;;;;;;;;;;;;;21.71;37.82;101952.09;7247508;19;154252;-54
2022/12/05 10:13:21;;;;;;;;;;;;;;;21.67;37.89;101967.03;7243698;19;153903;-54
2022/12/05 10:15:48;;;;;;;;;;;;;;;21.60;38.00;101955.28;7246241;19;156051;-54
2022/12/05 10:18:25;;;;;;;;;;;;;;;21.56;38.07;101960.66;7248062;19;153598;-54
2022/12/05 10:21:02;;;;;;;;;;;;;;;21.54;38.47;101957.28;7247970;19;154263;-54
2022/12/05 10:23:33;;;;;;;;;;;;;;;21.53;38.50;101955.59;7249218;19;156471;-54
2022/12/05 10:26:21;;;;;;;;;;;;;;;21.47;38.78;101953.97;7246043;19;154499;-54
2022/12/05 10:28:59;;;;;;;;;;;;;;;21.46;38.16;101955.09;7248474;19;154281;-54
2022/12/05 10:31:29;;;;;;;;;;;;;;;21.41;38.37;101952.31;7246695;19;153338;-54
2022/12/05 10:34:00;;;;;;;;;;;;;;;21.39;38.65;101954.59;7245815;19;154397;-54
2022/12/05 10:36:26;;;;;;;;;;;;;;;21.36;38.74;101955.16;7242558;19;154615;-54
2022/12/05 10:38:56;;;;;;;;;;;;;;;21.35;38.64;101947.84;7247028;19;154401;-54
2022/12/05 10:41:23;;;;;;;;;;;;;;;21.33;38.87;101961.38;7242719;19;154358;-54
2022/12/05 10:43:50;;;;;;;;;;;;;;;21.33;38.91;101960.50;7240355;19;153680;-54
2022/12/05 10:46:17;;;;;;;;;;;;;;;21.35;38.48;101958.28;7253071;19;153497;-54
2022/12/05 10:48:44;;;;;;;;;;;;;;;21.32;38.97;101956.84;7242468;19;154797;-54
2022/12/05 10:51:13;;;;;;;;;;;;;;;21.30;38.47;101953.53;7245313;19;153398;-54
2022/12/05 10:53:40;;;;;;;;;;;;;;;21.28;38.72;101962.22;7245833;19;153007;-54
2022/12/05 10:56:17;;;;;;;;;;;;;;;21.24;39.00;101963.94;7243925;19;153728;-54
2022/12/05 10:58:59;;;;;;;;;;;;;;;21.21;38.87;101966.50;7244579;19;154668;-54
2022/12/05 11:01:27;;;;;;;;;;;;;;;21.16;39.18;101964.53;7248317;19;153757;-54
2022/12/05 11:03:57;;;;;;;;;;;;;;;21.16;39.12;101961.75;7245093;19;154506;-54
2022/12/05 11:06:26;;;;;;;;;;;;;;;21.12;39.14;101965.38;7246192;19;153034;-54
2022/12/05 11:08:54;;;;;;;;;;;;;;;21.05;39.26;101974.09;7252519;19;153751;-54
2022/12/05 11:11:32;;;;;;;;;;;;;;;21.06;39.20;101969.31;7246172;19;153430;-54
2022/12/05 11:14:00;;;;;;;;;;;;;;;21.01;39.33;101964.56;7244107;19;152978;-54
2022/12/05 11:16:29;;;;;;;;;;;;;;;20.98;39.43;101964.31;7246224;19;154206;-54
2022/12/05 11:18:56;;;;;;;;;;;;;;;20.94;39.12;101969.63;7246059;19;153109;-54
2022/12/05 11:21:23;;;;;;;;;;;;;;;20.94;39.21;101963.19;7243086;19;152956;-54
2022/12/05 11:23:50;;;;;;;;;;;;;;;20.89;39.27;101968.84;7244065;19;155256;-54
2022/12/05 11:26:17;;;;;;;;;;;;;;;20.84;39.21;101964.91;7243920;19;153499;-54
2022/12/05 11:28:44;;;;;;;;;;;;;;;20.82;39.60;101961.53;7245957;19;153426;-54
2022/12/05 11:31:11;;;;;;;;;;;;;;;20.79;39.25;101962.13;7250265;19;153717;-54
2022/12/05 11:33:39;;;;;;;;;;;;;;;20.77;39.33;101964.38;7241864;19;154559;-54
2022/12/05 11:36:06;;;;;;;;;;;;;;;20.76;39.23;101968.28;7245925;19;155689;-54
2022/12/05 11:38:33;;;;;;;;;;;;;;;20.74;39.43;101969.72;7254152;19;153503;-54
2022/12/05 11:41:10;;;;;;;;;;;;;;;20.68;39.45;101973.66;7252910;19;155001;-54
2022/12/05 11:43:46;;;;;;;;;;;;;;;20.65;39.84;101969.47;7248740;19;153363;-54
2022/12/05 11:46:14;;;;;;;;;;;;;;;20.65;39.52;101977.03;7255788;19;154677;-54
2022/12/05 11:48:42;;;;;;;;;;;;;;;20.62;39.89;101966.38;7253890;19;153276;-53
2022/12/05 11:51:18;;;;;;;;;;;;;;;20.60;39.85;101971.44;7258602;19;153628;-53
2022/12/05 11:53:46;;;;;;;;;;;;;;;20.55;39.84;101963.84;7253435;19;153497;-53
2022/12/05 11:56:14;;;;;;;;;;;;;;;20.54;39.87;101967.78;7248117;19;153600;-54
2022/12/05 11:58:49;;;;;;;;;;;;;;;20.50;39.70;101952.63;7247836;19;153449;-53
2022/12/05 12:01:17;;;;;;;;;;;;;;;20.48;39.70;101960.53;7249842;19;153250;-53
2022/12/05 12:03:53;;;;;;;;;;;;;;;20.48;40.11;101954.91;7247267;19;154764;-53
2022/12/05 12:06:20;;;;;;;;;;;;;;;20.47;39.80;101961.63;7248785;19;155341;-54
2022/12/05 12:08:47;;;;;;;;;;;;;;;20.46;40.20;101959.09;7248171;19;152820;-54
2022/12/05 12:11:28;;;;;;;;;;;;;;;20.42;39.91;101961.63;7252267;19;153719;-54
2022/12/05 12:14:02;;;;;;;;;;;;;;;20.38;39.97;101957.72;7196577;19;154245;-54
2022/12/05 12:16:29;;;;;;;;;;;;;;;20.39;39.92;101951.00;7242520;19;153784;-54
2022/12/05 12:18:56;;;;;;;;;;;;;;;20.35;39.93;101952.69;7245209;19;152863;-54
2022/12/05 12:21:24;;;;;;;;;;;;;;;20.31;40.50;101943.97;7250627;19;152587;-54
2022/12/05 12:23:52;;;;;;;;;;;;;;;20.32;40.33;101944.81;7249017;19;154807;-54
2022/12/05 12:26:20;;;;;;;;;;;;;;;20.31;40.46;101948.72;7249294;19;153102;-54
2022/12/05 12:28:47;;;;;;;;;;;;;;;20.30;40.51;101952.69;7245472;19;153711;-54
2022/12/05 12:31:14;;;;;;;;;;;;;;;20.27;40.70;101942.81;7247298;19;152716;-54
2022/12/05 12:33:56;;;;;;;;;;;;;;;20.27;40.77;101936.34;7247335;19;153355;-54
2022/12/05 12:36:26;;;;;;;;;;;;;;;20.28;40.62;101944.50;7252925;19;153799;-54
2022/12/05 12:39:00;;;;;;;;;;;;;;;20.28;40.61;101947.31;7229232;19;155031;-54
2022/12/05 12:41:36;;;;;;;;;;;;;;;20.32;40.75;101945.66;7249844;19;154380;-54
2022/12/05 12:44:04;;;;;;;;;;;;;;;20.44;40.54;101959.41;7247395;19;153169;-54
2022/12/05 12:46:41;;;;;;;;;;;;;;;20.52;40.52;101958.81;7246360;19;152789;-54